Time;durP1;ratioP1;P1;durP2;ratioP2;P2;SDS_P1;SDS_P2;PMS_P1;PMS_P2;Temp;Humidity;BMP_temperature;BMP_pressure;BME280_temperature;BME280_humidity;BME280_pressure;Samples;Min_cycle;Max_cycle;Signal;HPM_P1;HPM_P2
2022/10/15 00:00:30;;;;;;;18.80;14.60;;;;;;;12.64;97.33;100747.56;5024802;28;20042;-86
2022/10/15 00:02:56;;;;;;;22.45;15.30;;;;;;;12.63;97.01;100744.09;5037133;28;20109;-86
2022/10/15 00:05:21;;;;;;;19.65;13.73;;;;;;;12.64;97.21;100742.31;5016910;28;20025;-86
2022/10/15 00:07:47;;;;;;;19.55;14.48;;;;;;;12.64;97.13;100737.06;5017509;28;20467;-87
2022/10/15 00:10:13;;;;;;;19.08;14.52;;;;;;;12.63;97.13;100738.00;5022029;28;20027;-87
2022/10/15 00:12:39;;;;;;;18.45;13.63;;;;;;;12.63;97.20;100736.22;5021550;28;20058;-86
2022/10/15 00:15:05;;;;;;;20.02;14.07;;;;;;;12.63;97.29;100736.22;5021287;28;20079;-86
2022/10/15 00:17:32;;;;;;;21.67;15.80;;;;;;;12.63;97.17;100740.63;5020909;28;20252;-86
2022/10/15 00:19:57;;;;;;;18.48;13.88;;;;;;;12.63;97.27;100738.00;5022235;28;20046;-86
2022/10/15 00:22:23;;;;;;;21.55;14.85;;;;;;;12.62;97.20;100739.75;5040504;28;20336;-86
2022/10/15 00:24:48;;;;;;;17.58;14.38;;;;;;;12.63;96.92;100743.25;5008148;28;20100;-86
2022/10/15 00:27:13;;;;;;;21.40;14.60;;;;;;;12.62;96.77;100742.38;5001254;28;20030;-87
2022/10/15 00:29:39;;;;;;;20.45;14.05;;;;;;;12.62;96.77;100736.28;5017446;28;20088;-86
2022/10/15 00:32:04;;;;;;;18.13;13.10;;;;;;;12.62;97.11;100734.50;4987228;28;20076;-86
2022/10/15 00:34:30;;;;;;;21.10;14.60;;;;;;;12.63;97.14;100732.75;5002978;28;20333;-86
2022/10/15 00:36:55;;;;;;;20.20;14.15;;;;;;;12.62;97.23;100729.25;5020903;28;20056;-86
2022/10/15 00:39:21;;;;;;;19.83;14.32;;;;;;;12.62;96.81;100729.25;5003031;28;20028;-86
2022/10/15 00:41:46;;;;;;;18.00;13.90;;;;;;;12.63;97.16;100725.72;5003720;28;20058;-86
2022/10/15 00:44:21;;;;;;;17.38;13.25;;;;;;;12.63;96.86;100724.88;4994887;28;20038;-86
2022/10/15 00:47:03;;;;;;;19.88;13.18;;;;;;;12.63;97.04;100730.13;4999729;28;20326;-86
2022/10/15 00:50:08;;;;;;;19.30;13.10;;;;;;;12.63;96.54;100724.88;5000763;28;20030;-86
2022/10/15 00:53:20;;;;;;;19.92;14.10;;;;;;;12.63;96.77;100724.88;4997886;28;20049;-86
2022/10/15 00:55:46;;;;;;;18.23;12.98;;;;;;;12.62;96.52;100726.63;4997870;28;20114;-86
2022/10/15 00:58:20;;;;;;;17.27;13.70;;;;;;;12.62;96.16;100725.78;4982927;28;20348;-86
2022/10/15 01:00:46;;;;;;;21.15;14.38;;;;;;;12.62;96.51;100725.78;5001012;28;20057;-86
2022/10/15 01:03:11;;;;;;;18.70;13.32;;;;;;;12.62;96.31;100717.91;5000343;28;20088;-87
2022/10/15 01:05:38;;;;;;;22.23;15.27;;;;;;;12.61;96.37;100711.81;5000919;28;20054;-86
2022/10/15 01:08:04;;;;;;;20.52;14.35;;;;;;;12.62;96.51;100713.47;4999253;28;20244;-86
2022/10/15 01:10:47;;;;;;;21.42;14.60;;;;;;;12.61;96.63;100711.81;5000063;28;20092;-86
2022/10/15 01:13:34;;;;;;;19.08;14.80;;;;;;;12.62;96.95;100710.84;4999549;28;20045;-87
2022/10/15 01:16:04;;;;;;;23.58;15.43;;;;;;;12.63;96.97;100709.09;5000186;28;20363;-86
2022/10/15 01:18:53;;;;;;;23.13;16.05;;;;;;;12.61;97.03;100705.69;5000192;28;20348;-86
2022/10/15 01:21:32;;;;;;;20.85;15.63;;;;;;;12.62;96.81;100704.75;4998834;28;20026;-87
2022/10/15 01:24:09;;;;;;;21.85;16.02;;;;;;;12.61;97.13;100700.44;5000430;28;20068;-86
2022/10/15 01:26:59;;;;;;;22.02;15.10;;;;;;;12.61;96.92;100697.81;5000002;28;20229;-86
2022/10/15 01:30:04;;;;;;;20.73;15.60;;;;;;;12.62;96.79;100696.88;4990119;28;20418;-86
2022/10/15 01:32:42;;;;;;;23.58;16.58;;;;;;;12.61;96.96;100690.78;5019583;28;20038;-86
2022/10/15 01:35:18;;;;;;;25.63;17.02;;;;;;;12.60;96.80;100694.31;5019380;28;20060;-86
2022/10/15 01:38:40;;;;;;;24.58;17.20;;;;;;;12.61;96.91;100687.31;5019641;28;20018;-86
2022/10/15 01:41:19;;;;;;;26.52;18.30;;;;;;;12.60;97.05;100689.06;4981896;28;20073;-86
2022/10/15 01:44:13;;;;;;;23.95;18.15;;;;;;;12.59;96.94;100682.13;5019568;28;20037;-86
2022/10/15 01:46:45;;;;;;;25.52;17.95;;;;;;;12.59;96.71;100679.50;5019775;28;20336;-86
2022/10/15 01:49:14;;;;;;;27.15;17.38;;;;;;;12.60;96.86;100688.22;5019546;28;20029;-86
2022/10/15 01:51:42;;;;;;;26.52;18.88;;;;;;;12.59;96.59;100689.19;5019254;28;20042;-86
2022/10/15 01:54:14;;;;;;;23.40;17.40;;;;;;;12.58;96.82;100683.06;5019377;28;20037;-86
2022/10/15 01:56:48;;;;;;;22.10;16.58;;;;;;;12.59;96.20;100678.66;5019522;28;20025;-86
2022/10/15 01:59:16;;;;;;;24.88;18.15;;;;;;;12.59;96.58;100678.66;5019051;28;20038;-86
2022/10/15 02:01:42;;;;;;;21.40;17.00;;;;;;;12.59;96.41;100673.41;5032628;28;20025;-86
2022/10/15 02:04:23;;;;;;;21.50;17.00;;;;;;;12.59;96.21;100670.78;5011732;28;20415;-86
2022/10/15 02:07:00;;;;;;;24.95;18.13;;;;;;;12.59;96.24;100669.00;5019621;28;20336;-86
2022/10/15 02:09:42;;;;;;;28.85;19.80;;;;;;;12.58;96.63;100669.06;5018878;28;20029;-86
2022/10/15 02:12:35;;;;;;;23.83;17.45;;;;;;;12.59;96.40;100665.53;5019039;28;20332;-87
2022/10/15 02:15:18;;;;;;;23.85;18.02;;;;;;;12.58;96.58;100659.41;5027432;28;20030;-86
2022/10/15 02:18:08;;;;;;;25.05;18.48;;;;;;;12.58;96.50;100650.69;5019115;28;20341;-86
2022/10/15 02:21:04;;;;;;;24.77;18.08;;;;;;;12.57;96.48;100652.47;5018719;28;20124;-86
2022/10/15 02:23:38;;;;;;;25.80;17.67;;;;;;;12.57;96.38;100648.97;5008227;28;20308;-86
2022/10/15 02:26:07;;;;;;;23.45;19.00;;;;;;;12.57;96.59;100641.97;5018891;28;20038;-86
2022/10/15 02:28:35;;;;;;;25.25;18.58;;;;;;;12.57;96.36;100638.47;5018050;28;20049;-87
2022/10/15 02:31:01;;;;;;;21.88;18.15;;;;;;;12.57;96.46;100625.34;4984938;28;20034;-86
2022/10/15 02:33:30;;;;;;;28.00;18.98;;;;;;;12.57;96.30;100620.06;4998651;28;20060;-86
2022/10/15 02:35:57;;;;;;;23.23;17.67;;;;;;;12.56;96.35;100618.41;4981381;28;20026;-86
2022/10/15 02:38:26;;;;;;;23.77;17.13;;;;;;;12.54;96.24;100607.97;4999431;28;20053;-88
2022/10/15 02:40:52;;;;;;;25.65;18.23;;;;;;;12.55;96.27;100611.44;4981585;28;20345;-84
2022/10/15 02:43:19;;;;;;;27.33;18.98;;;;;;;12.55;96.34;100608.81;4997170;28;20022;-84
2022/10/15 02:45:45;;;;;;;26.08;18.80;;;;;;;12.54;96.41;100610.59;4981735;28;20193;-84
2022/10/15 02:48:10;;;;;;;21.27;17.50;;;;;;;12.55;96.36;100616.69;4998836;28;20248;-84
2022/10/15 02:50:36;;;;;;;24.05;17.15;;;;;;;12.55;96.16;100614.94;4998407;28;20349;-84
2022/10/15 02:53:02;;;;;;;21.30;16.13;;;;;;;12.54;96.14;100610.59;4998363;28;20038;-84
2022/10/15 02:55:27;;;;;;;26.27;16.83;;;;;;;12.54;96.14;100605.34;4997918;28;20030;-84
2022/10/15 02:57:52;;;;;;;23.45;18.25;;;;;;;12.54;96.49;100609.75;4998327;28;20214;-84
2022/10/15 03:00:18;;;;;;;21.67;16.25;;;;;;;12.54;96.17;100607.97;4980029;28;20046;-84
2022/10/15 03:02:44;;;;;;;24.63;17.42;;;;;;;12.53;96.02;100605.41;4997062;28;20026;-84
2022/10/15 03:05:10;;;;;;;21.85;15.95;;;;;;;12.53;95.87;100597.53;4998030;28;20030;-84
2022/10/15 03:07:35;;;;;;;25.83;18.40;;;;;;;12.53;96.04;100600.16;4980534;28;20099;-84
2022/10/15 03:10:01;;;;;;;20.27;16.15;;;;;;;12.53;96.20;100603.63;4998300;28;20058;-84
2022/10/15 03:12:26;;;;;;;25.17;18.48;;;;;;;12.52;96.04;100601.94;4998227;28;20060;-84
2022/10/15 03:14:52;;;;;;;21.50;16.98;;;;;;;12.52;95.88;100593.22;4998462;28;20084;-84
2022/10/15 03:17:17;;;;;;;20.58;15.38;;;;;;;12.52;95.76;100598.47;4980098;28;20045;-84
2022/10/15 03:19:42;;;;;;;31.40;23.13;;;;;;;12.52;96.00;100603.75;4998184;28;20061;-84
2022/10/15 03:22:08;;;;;;;24.25;18.48;;;;;;;12.53;96.12;100613.28;4997677;28;20365;-84
2022/10/15 03:24:33;;;;;;;22.10;17.52;;;;;;;12.51;95.97;100599.41;4997510;28;20286;-84
2022/10/15 03:26:59;;;;;;;23.58;16.73;;;;;;;12.51;95.72;100600.25;5015403;28;20030;-84
2022/10/15 03:29:24;;;;;;;20.65;16.88;;;;;;;12.51;95.69;100607.28;5022194;28;20084;-84
2022/10/15 03:31:49;;;;;;;20.85;16.17;;;;;;;12.50;95.41;100598.56;5018386;28;20098;-84
2022/10/15 03:34:15;;;;;;;25.80;18.85;;;;;;;12.49;96.00;100591.59;5018959;28;20084;-84
2022/10/15 03:36:40;;;;;;;23.15;16.25;;;;;;;12.48;95.91;100590.75;5016038;28;20037;-84
2022/10/15 03:39:07;;;;;;;21.25;16.58;;;;;;;12.47;95.89;100596.91;5010675;28;20182;-84
2022/10/15 03:41:32;;;;;;;20.40;16.33;;;;;;;12.48;95.96;100598.63;5010882;28;20038;-84
2022/10/15 03:44:02;;;;;;;19.30;16.13;;;;;;;12.47;96.02;100596.91;5015955;28;20042;-84
2022/10/15 03:46:28;;;;;;;18.75;15.60;;;;;;;12.46;96.15;100600.50;5017126;28;20053;-84
2022/10/15 03:48:53;;;;;;;19.33;15.68;;;;;;;12.46;96.12;100600.50;5032738;28;20033;-84
2022/10/15 03:51:18;;;;;;;19.17;15.75;;;;;;;12.46;95.81;100607.50;5017113;28;20333;-84
2022/10/15 03:53:44;;;;;;;19.70;15.85;;;;;;;12.45;95.60;100609.28;5017277;28;20104;-84
2022/10/15 03:56:09;;;;;;;23.02;18.45;;;;;;;12.44;95.61;100612.88;5016767;28;20033;-84
2022/10/15 03:58:35;;;;;;;21.52;15.70;;;;;;;12.46;95.70;100618.00;5016821;28;20329;-84
2022/10/15 04:01:00;;;;;;;17.88;14.73;;;;;;;12.44;95.38;100622.50;5016606;28;20305;-84
2022/10/15 04:03:26;;;;;;;22.15;15.68;;;;;;;12.43;95.62;100624.28;5020928;28;20331;-84
2022/10/15 04:05:52;;;;;;;19.55;15.52;;;;;;;12.43;95.71;100626.91;5035140;28;20072;-83
2022/10/15 04:08:17;;;;;;;18.00;15.45;;;;;;;12.44;95.58;100627.75;5035607;28;20037;-84
2022/10/15 04:10:43;;;;;;;19.63;15.10;;;;;;;12.43;95.64;100621.66;5036614;28;20041;-84
2022/10/15 04:13:09;;;;;;;27.73;19.50;;;;;;;12.45;95.58;100626.84;5036620;28;20037;-84
2022/10/15 04:15:37;;;;;;;24.83;16.88;;;;;;;12.45;95.96;100626.84;5036611;28;20274;-84
2022/10/15 04:18:03;;;;;;;22.55;17.67;;;;;;;12.43;95.91;100621.66;5036482;28;20244;-84
2022/10/15 04:20:28;;;;;;;20.90;16.20;;;;;;;12.44;95.68;100612.00;5036226;28;20377;-84
2022/10/15 04:22:53;;;;;;;23.55;17.30;;;;;;;12.44;95.40;100612.00;5036628;28;20366;-84
2022/10/15 04:25:19;;;;;;;21.15;16.52;;;;;;;12.44;95.84;100609.38;5036104;28;20041;-84
2022/10/15 04:27:44;;;;;;;22.80;16.73;;;;;;;12.45;95.94;100609.28;5017710;28;20021;-84
2022/10/15 04:30:10;;;;;;;19.55;16.40;;;;;;;12.44;95.86;100612.88;5016483;28;20115;-84
2022/10/15 04:32:36;;;;;;;19.60;15.77;;;;;;;12.45;95.48;100611.06;5016496;28;20038;-84
2022/10/15 04:35:01;;;;;;;21.10;17.23;;;;;;;12.44;95.70;100617.25;5033773;28;20036;-84
2022/10/15 04:37:26;;;;;;;20.02;15.40;;;;;;;12.44;95.54;100604.97;5036311;28;20371;-84
2022/10/15 04:39:52;;;;;;;17.40;14.45;;;;;;;12.45;95.36;100598.78;5014578;28;20270;-84
2022/10/15 04:42:17;;;;;;;20.23;15.85;;;;;;;12.45;95.79;100601.41;4998939;28;20029;-84
2022/10/15 04:44:42;;;;;;;19.35;16.45;;;;;;;12.45;95.85;100609.28;5016768;28;20029;-84
2022/10/15 04:47:08;;;;;;;19.15;15.02;;;;;;;12.46;95.86;100605.75;5016738;28;20096;-84
2022/10/15 04:49:33;;;;;;;18.92;15.15;;;;;;;12.45;96.01;100601.41;4998872;28;20112;-84
2022/10/15 04:51:58;;;;;;;17.60;14.40;;;;;;;12.46;96.17;100591.75;5016765;28;20274;-84
2022/10/15 04:54:24;;;;;;;19.23;16.05;;;;;;;12.46;95.63;100597.88;4999412;28;20040;-84
2022/10/15 04:56:49;;;;;;;21.75;15.90;;;;;;;12.48;95.84;100601.25;5020643;28;20072;-84
2022/10/15 04:59:14;;;;;;;18.33;14.90;;;;;;;12.46;96.11;100591.75;4998885;28;20367;-84
2022/10/15 05:01:40;;;;;;;20.35;16.27;;;;;;;12.48;96.26;100596.00;5000615;28;20333;-84
2022/10/15 05:04:05;;;;;;;21.15;17.30;;;;;;;12.47;96.45;100593.47;5010010;28;20064;-84
2022/10/15 05:06:31;;;;;;;20.70;15.93;;;;;;;12.48;96.31;100596.00;5002371;28;20042;-84
2022/10/15 05:08:57;;;;;;;22.27;17.83;;;;;;;12.48;96.47;100590.75;5002744;28;20339;-84
2022/10/15 05:11:25;;;;;;;20.58;17.00;;;;;;;12.48;96.59;100590.75;5019182;28;20330;-84
2022/10/15 05:13:51;;;;;;;19.17;15.73;;;;;;;12.47;96.40;100589.03;5020085;28;20041;-84
2022/10/15 05:16:22;;;;;;;19.33;16.75;;;;;;;12.49;96.16;100588.97;5018583;28;20069;-84
2022/10/15 05:18:50;;;;;;;19.30;15.52;;;;;;;12.48;96.46;100585.50;5018698;28;20102;-84
2022/10/15 05:21:17;;;;;;;23.30;17.05;;;;;;;12.47;96.63;100586.41;5019370;28;20038;-84
2022/10/15 05:23:43;;;;;;;19.27;16.27;;;;;;;12.48;96.33;100580.25;5019499;28;20068;-84
2022/10/15 05:26:12;;;;;;;23.27;17.95;;;;;;;12.49;96.54;100576.69;5018287;28;20029;-84
2022/10/15 05:28:37;;;;;;;22.15;16.88;;;;;;;12.48;96.76;100572.38;5017210;28;20045;-84
2022/10/15 05:31:07;;;;;;;23.85;17.60;;;;;;;12.47;96.55;100581.16;5014774;28;20061;-84
2022/10/15 05:33:33;;;;;;;20.48;15.82;;;;;;;12.48;96.76;100564.50;5020567;28;20111;-84
2022/10/15 05:36:19;;;;;;;20.23;15.65;;;;;;;12.48;97.00;100564.50;5029588;28;20033;-84
2022/10/15 05:38:46;;;;;;;21.77;16.38;;;;;;;12.47;96.93;100561.94;5028531;28;20124;-84
2022/10/15 05:41:12;;;;;;;22.00;17.17;;;;;;;12.46;96.71;100555.84;5025744;28;20029;-84
2022/10/15 05:43:37;;;;;;;19.88;15.60;;;;;;;12.46;96.77;100566.34;5039088;28;20517;-84
2022/10/15 05:46:03;;;;;;;20.95;15.75;;;;;;;12.47;96.54;100568.03;5032085;28;20044;-84
2022/10/15 05:48:28;;;;;;;19.20;15.25;;;;;;;12.46;97.01;100571.59;5032390;28;20252;-84
2022/10/15 05:51:17;;;;;;;18.10;14.68;;;;;;;12.46;96.55;100578.63;5027486;28;20029;-84
2022/10/15 05:53:45;;;;;;;17.10;14.68;;;;;;;12.45;96.68;100580.41;5014857;28;20295;-84
2022/10/15 05:56:10;;;;;;;15.77;13.93;;;;;;;12.46;96.45;100582.13;5020030;28;20038;-84
2022/10/15 05:58:36;;;;;;;16.77;14.75;;;;;;;12.46;96.55;100584.75;5039328;28;20091;-84
2022/10/15 06:01:04;;;;;;;17.88;14.27;;;;;;;12.47;96.52;100583.78;5022107;28;20305;-84
2022/10/15 06:03:30;;;;;;;17.23;14.05;;;;;;;12.44;96.32;100568.22;5031733;28;20495;-84
2022/10/15 06:05:55;;;;;;;18.10;15.00;;;;;;;12.46;96.21;100575.97;5017369;28;20097;-84
2022/10/15 06:08:21;;;;;;;19.23;14.90;;;;;;;12.45;96.58;100564.63;5023635;28;20343;-84
2022/10/15 06:10:47;;;;;;;13.50;12.10;;;;;;;12.46;96.96;100565.47;5020695;28;20104;-84
2022/10/15 06:13:13;;;;;;;17.48;13.88;;;;;;;12.46;96.42;100560.22;5033311;28;20041;-84
2022/10/15 06:15:44;;;;;;;15.48;13.15;;;;;;;12.46;96.37;100555.84;5017817;28;20045;-84
2022/10/15 06:18:14;;;;;;;18.02;13.18;;;;;;;12.46;96.48;100558.47;5019942;28;20099;-84
2022/10/15 06:20:40;;;;;;;16.58;13.00;;;;;;;12.47;96.82;100564.56;5003194;28;20043;-84
2022/10/15 06:23:05;;;;;;;16.48;12.75;;;;;;;12.47;96.70;100572.44;4997331;28;20122;-84
2022/10/15 06:25:32;;;;;;;16.90;13.18;;;;;;;12.46;96.40;100566.34;5015379;28;20044;-83
2022/10/15 06:28:02;;;;;;;13.95;11.57;;;;;;;12.48;96.67;100564.50;5018127;28;20513;-84
2022/10/15 06:30:28;;;;;;;19.05;13.85;;;;;;;12.47;96.47;100556.69;5001558;28;20034;-84
2022/10/15 06:32:54;;;;;;;13.60;11.15;;;;;;;12.47;96.48;100562.78;4998887;28;20237;-84
2022/10/15 06:35:21;;;;;;;17.10;12.55;;;;;;;12.48;96.44;100564.50;4997488;28;20034;-84
2022/10/15 06:37:47;;;;;;;15.70;12.93;;;;;;;12.46;96.62;100566.34;4997677;28;20033;-84
2022/10/15 06:40:13;;;;;;;16.75;12.98;;;;;;;12.46;96.74;100568.97;4996876;28;20574;-84
2022/10/15 06:42:39;;;;;;;23.30;16.23;;;;;;;12.48;96.36;100580.25;4979978;28;20038;-84
2022/10/15 06:45:06;;;;;;;17.80;13.38;;;;;;;12.50;96.59;100569.66;4997123;28;20379;-84
2022/10/15 06:47:32;;;;;;;21.23;14.63;;;;;;;12.50;97.04;100572.28;4997924;28;20050;-84
2022/10/15 06:49:57;;;;;;;19.05;13.77;;;;;;;12.49;97.11;100571.41;4998406;28;20027;-84
2022/10/15 06:52:24;;;;;;;19.75;14.80;;;;;;;12.49;96.81;100555.66;4998302;28;20022;-84
2022/10/15 06:54:49;;;;;;;19.13;14.20;;;;;;;12.50;97.06;100556.53;4999043;28;20044;-84
2022/10/15 06:57:14;;;;;;;21.60;14.70;;;;;;;12.50;97.20;100572.28;4980505;28;20093;-84
2022/10/15 06:59:40;;;;;;;21.65;15.32;;;;;;;12.51;97.31;100573.13;4998590;28;20524;-84
2022/10/15 07:02:06;;;;;;;23.50;15.88;;;;;;;12.51;97.09;100578.38;4977304;28;20098;-84
2022/10/15 07:04:31;;;;;;;23.67;15.80;;;;;;;12.51;97.13;100573.13;4974212;28;20041;-84
2022/10/15 07:06:56;;;;;;;23.35;16.10;;;;;;;12.51;96.81;100575.75;4998185;28;20041;-84
2022/10/15 07:09:22;;;;;;;26.95;17.95;;;;;;;12.52;97.21;100574.84;4998151;28;20045;-84
2022/10/15 07:11:47;;;;;;;27.13;17.20;;;;;;;12.52;96.96;100573.06;4998526;28;20101;-84
2022/10/15 07:14:13;;;;;;;24.30;16.45;;;;;;;12.53;97.33;100572.09;4997778;28;20066;-84
2022/10/15 07:16:38;;;;;;;29.17;17.88;;;;;;;12.52;97.30;100565.19;4998285;28;20034;-84
2022/10/15 07:19:04;;;;;;;26.27;16.95;;;;;;;12.54;97.33;100565.09;4980163;28;20337;-84
2022/10/15 07:21:30;;;;;;;25.98;17.10;;;;;;;12.54;97.67;100562.47;4996275;28;20022;-84
2022/10/15 07:23:55;;;;;;;26.95;17.33;;;;;;;12.55;97.73;100565.03;4980475;28;20057;-84
2022/10/15 07:26:21;;;;;;;22.20;15.75;;;;;;;12.56;97.59;100560.59;4989993;28;20320;-84
2022/10/15 07:28:47;;;;;;;21.95;15.70;;;;;;;12.55;97.60;100553.66;5000735;28;20069;-84
2022/10/15 07:31:12;;;;;;;23.98;15.43;;;;;;;12.56;97.61;100552.72;5036764;28;20064;-84
2022/10/15 07:33:38;;;;;;;20.95;14.48;;;;;;;12.57;97.82;100550.03;5031733;28;20041;-84
2022/10/15 07:36:05;;;;;;;22.42;14.98;;;;;;;12.56;97.50;100555.34;4999616;28;20049;-83
2022/10/15 07:38:32;;;;;;;23.42;15.00;;;;;;;12.55;97.73;100559.78;4999511;28;20033;-83
2022/10/15 07:40:59;;;;;;;21.20;14.82;;;;;;;12.56;97.51;100556.19;5000147;28;20329;-84
2022/10/15 07:43:24;;;;;;;26.05;16.83;;;;;;;12.58;97.84;100550.88;4999337;28;20263;-84
2022/10/15 07:45:50;;;;;;;31.45;17.65;;;;;;;12.58;97.50;100548.25;5026511;28;20071;-84
2022/10/15 07:48:15;;;;;;;31.17;18.55;;;;;;;12.57;97.59;100550.03;5035127;28;20124;-83
2022/10/15 07:50:41;;;;;;;35.55;19.73;;;;;;;12.59;97.75;100544.69;5037253;28;20021;-83
2022/10/15 07:53:06;;;;;;;35.72;17.80;;;;;;;12.60;98.06;100543.75;5019171;28;20041;-83
2022/10/15 07:55:32;;;;;;;48.67;24.73;;;;;;;12.60;98.28;100543.75;5019019;28;20033;-83
2022/10/15 07:57:58;;;;;;;47.50;23.50;;;;;;;12.61;98.19;100542.81;5019010;28;20064;-84
2022/10/15 08:00:23;;;;;;;43.95;22.85;;;;;;;12.61;98.75;100542.81;5036736;28;20030;-83
2022/10/15 08:02:48;;;;;;;41.88;21.77;;;;;;;12.62;98.51;100537.47;5019082;28;20049;-83
2022/10/15 08:05:14;;;;;;;43.40;21.92;;;;;;;12.62;98.51;100539.25;5016048;28;20026;-84
2022/10/15 08:07:40;;;;;;;48.03;24.45;;;;;;;12.64;98.44;100529.50;5016988;28;20054;-83
2022/10/15 08:10:07;;;;;;;59.60;26.77;;;;;;;12.63;98.63;100526.03;5015827;28;20033;-83
2022/10/15 08:12:32;;;;;;;57.75;26.73;;;;;;;12.66;98.94;100530.25;5017088;28;20050;-84
2022/10/15 08:14:58;;;;;;;48.33;25.15;;;;;;;12.67;99.42;100530.19;5017126;28;20029;-84
2022/10/15 08:17:23;;;;;;;58.60;28.25;;;;;;;12.68;100.00;100529.28;5017031;28;20061;-84
2022/10/15 08:19:48;;;;;;;56.40;28.48;;;;;;;12.70;100.00;100521.31;5018056;28;20041;-84
2022/10/15 08:22:14;;;;;;;52.85;28.02;;;;;;;12.72;100.00;100511.56;4998786;28;20041;-84
2022/10/15 08:24:39;;;;;;;52.08;27.50;;;;;;;12.73;100.00;100509.78;4999711;28;20034;-83
2022/10/15 08:27:04;;;;;;;50.30;26.35;;;;;;;12.77;100.00;100511.28;4999061;28;20053;-83
2022/10/15 08:29:30;;;;;;;50.88;26.65;;;;;;;12.78;100.00;100510.38;5017231;28;20076;-84
2022/10/15 08:31:55;;;;;;;46.05;26.33;;;;;;;12.80;100.00;100516.38;5003062;28;20065;-84
2022/10/15 08:34:21;;;;;;;50.35;26.73;;;;;;;12.81;100.00;100507.59;5020469;28;20108;-83
2022/10/15 08:36:46;;;;;;;46.22;26.20;;;;;;;12.83;100.00;100503.94;5020299;28;20044;-84
2022/10/15 08:39:11;;;;;;;37.58;23.38;;;;;;;12.85;100.00;100502.06;5019756;28;20034;-84
2022/10/15 08:41:47;;;;;;;47.30;25.70;;;;;;;12.86;100.00;100497.63;5019938;28;20045;-84
2022/10/15 08:44:33;;;;;;;37.50;22.90;;;;;;;12.89;100.00;100501.91;5016808;28;20026;-84
2022/10/15 08:47:04;;;;;;;36.63;21.52;;;;;;;12.91;100.00;100500.03;5018308;28;20026;-84
2022/10/15 08:49:52;;;;;;;38.55;22.98;;;;;;;12.93;100.00;100506.03;5020244;28;20041;-84
2022/10/15 08:52:24;;;;;;;43.22;22.80;;;;;;;12.95;100.00;100501.53;5002307;28;20093;-83
2022/10/15 08:54:51;;;;;;;36.83;20.88;;;;;;;12.98;100.00;100518.00;5019914;28;20064;-84
2022/10/15 08:57:50;;;;;;;28.98;18.70;;;;;;;13.00;100.00;100516.13;5018142;28;20049;-83
2022/10/15 09:00:19;;;;;;;26.77;18.05;;;;;;;13.02;100.00;100518.66;5019260;28;20092;-84
2022/10/15 09:02:53;;;;;;;27.85;18.60;;;;;;;13.02;100.00;100532.69;5019756;28;20045;-84
2022/10/15 09:05:25;;;;;;;24.95;16.35;;;;;;;13.03;100.00;100517.75;5017857;28;20026;-84
2022/10/15 09:08:11;;;;;;;24.15;16.92;;;;;;;13.04;100.00;100495.75;5019699;28;20037;-84
2022/10/15 09:10:50;;;;;;;29.67;16.63;;;;;;;13.05;100.00;100492.22;5016319;28;20309;-84
2022/10/15 09:13:48;;;;;;;22.77;14.52;;;;;;;13.06;100.00;100481.63;4999781;28;20038;-84
2022/10/15 09:16:29;;;;;;;24.92;16.85;;;;;;;13.05;100.00;100487.78;4988389;28;20046;-84
2022/10/15 09:18:56;;;;;;;25.02;16.73;;;;;;;13.09;100.00;100500.78;5000321;28;20399;-84
2022/10/15 09:21:26;;;;;;;22.02;14.95;;;;;;;13.08;100.00;100492.06;5000235;28;20259;-84
2022/10/15 09:24:00;;;;;;;22.30;15.77;;;;;;;13.09;100.00;100491.09;5000326;28;20030;-84
2022/10/15 09:26:46;;;;;;;25.35;16.17;;;;;;;13.10;100.00;100486.69;4999498;28;20038;-84
2022/10/15 09:29:34;;;;;;;24.17;15.57;;;;;;;13.12;100.00;100482.22;4998472;28;20037;-84
2022/10/15 09:32:08;;;;;;;23.55;14.88;;;;;;;13.13;100.00;100474.22;4999981;28;20061;-84
2022/10/15 09:34:43;;;;;;;20.90;13.52;;;;;;;13.15;100.00;100471.50;5012939;28;20030;-84
2022/10/15 09:37:23;;;;;;;18.25;12.75;;;;;;;13.16;100.00;100474.03;5019393;28;20244;-83
2022/10/15 09:40:22;;;;;;;19.88;13.77;;;;;;;13.18;100.00;100473.97;5019066;28;20033;-83
2022/10/15 09:42:51;;;;;;;20.48;13.90;;;;;;;13.21;100.00;100472.00;5019497;28;20108;-84
2022/10/15 09:45:17;;;;;;;19.38;13.68;;;;;;;13.22;100.00;100478.09;5018980;28;20037;-83
2022/10/15 09:47:43;;;;;;;17.52;12.55;;;;;;;13.23;100.00;100470.13;5019434;28;20097;-83
2022/10/15 09:50:11;;;;;;;17.77;12.68;;;;;;;13.24;100.00;100474.47;5019655;28;20067;-84
2022/10/15 09:53:24;;;;;;;16.33;11.27;;;;;;;13.26;100.00;100471.72;5018245;28;20148;-84
2022/10/15 09:56:00;;;;;;;15.02;10.35;;;;;;;13.25;100.00;100464.78;5017554;28;20053;-84
2022/10/15 09:58:32;;;;;;;12.65;9.70;;;;;;;13.25;100.00;100462.16;5018973;28;20026;-83
2022/10/15 10:00:59;;;;;;;12.93;9.43;;;;;;;13.27;100.00;100462.91;5034228;28;20337;-84
2022/10/15 10:03:29;;;;;;;14.30;9.57;;;;;;;13.29;100.00;100466.28;5019105;28;20062;-84
2022/10/15 10:06:06;;;;;;;11.32;8.70;;;;;;;13.29;100.00;100463.66;5018952;28;20394;-83
2022/10/15 10:08:54;;;;;;;8.00;6.95;;;;;;;13.29;100.00;100468.94;5018668;28;20072;-84
2022/10/15 10:11:21;;;;;;;7.03;6.43;;;;;;;13.30;100.00;100461.88;5018345;28;20034;-84
2022/10/15 10:13:46;;;;;;;8.77;7.32;;;;;;;13.30;100.00;100470.63;5001304;28;20037;-84
2022/10/15 10:16:14;;;;;;;10.63;6.68;;;;;;;13.31;100.00;100468.88;5000483;28;20477;-84
2022/10/15 10:18:41;;;;;;;9.05;7.70;;;;;;;13.32;100.00;100462.69;5019009;28;20033;-84
2022/10/15 10:21:21;;;;;;;10.18;7.80;;;;;;;13.33;100.00;100467.00;5000961;28;20036;-84
2022/10/15 10:23:47;;;;;;;9.52;7.57;;;;;;;13.33;100.00;100464.38;5018696;28;20096;-84
2022/10/15 10:26:13;;;;;;;15.10;8.90;;;;;;;13.34;100.00;100464.28;5000771;28;20049;-84
2022/10/15 10:28:48;;;;;;;8.20;6.68;;;;;;;13.33;100.00;100462.56;5001738;28;20096;-84
2022/10/15 10:31:14;;;;;;;8.40;7.15;;;;;;;13.35;100.00;100457.22;5018098;28;20109;-84
2022/10/15 10:33:48;;;;;;;8.05;6.82;;;;;;;13.35;100.00;100463.34;5006974;28;20112;-84
2022/10/15 10:36:29;;;;;;;13.00;6.95;;;;;;;13.37;100.00;100457.97;5036475;28;20045;-84
2022/10/15 10:39:13;;;;;;;7.95;7.15;;;;;;;13.38;100.00;100459.69;5031510;28;20080;-84
2022/10/15 10:41:53;;;;;;;10.82;7.40;;;;;;;13.39;100.00;100458.78;5018506;28;20037;-84
2022/10/15 10:44:31;;;;;;;7.90;7.10;;;;;;;13.38;100.00;100459.69;5018204;28;20041;-84
2022/10/15 10:47:00;;;;;;;9.10;7.07;;;;;;;13.40;100.00;100458.66;5019900;28;20265;-84
2022/10/15 10:49:56;;;;;;;9.80;6.60;;;;;;;13.40;100.00;100453.38;5017069;28;20321;-84
2022/10/15 10:52:36;;;;;;;9.95;7.30;;;;;;;13.40;100.00;100448.13;5002844;28;20042;-84
2022/10/15 10:55:06;;;;;;;10.32;7.68;;;;;;;13.41;100.00;100452.47;4998370;28;20072;-84
2022/10/15 10:57:43;;;;;;;8.18;6.40;;;;;;;13.42;100.00;100451.53;4997713;28;20042;-84
2022/10/15 11:00:18;;;;;;;7.97;7.00;;;;;;;13.43;100.00;100453.22;4998126;28;20102;-84
2022/10/15 11:02:43;;;;;;;6.90;6.13;;;;;;;13.46;100.00;100446.91;5006194;28;20033;-84
2022/10/15 11:05:12;;;;;;;9.05;7.18;;;;;;;13.44;100.00;100443.53;5017402;28;20032;-84
2022/10/15 11:07:49;;;;;;;14.77;7.55;;;;;;;13.47;100.00;100447.78;5026198;28;20052;-84
2022/10/15 11:10:28;;;;;;;8.70;7.25;;;;;;;13.48;100.00;100445.06;5021236;28;20025;-84
2022/10/15 11:13:14;;;;;;;7.65;6.75;;;;;;;13.50;100.00;100442.31;5015468;28;20267;-84
2022/10/15 11:15:52;;;;;;;7.75;5.93;;;;;;;13.50;100.00;100443.19;5016249;28;20316;-84
2022/10/15 11:18:58;;;;;;;8.68;6.50;;;;;;;13.51;100.00;100439.59;5013410;28;20042;-83
2022/10/15 11:22:02;;;;;;;7.32;6.22;;;;;;;13.53;100.00;100439.53;5021110;28;20162;-84
2022/10/15 11:24:47;;;;;;;7.28;6.57;;;;;;;13.53;100.00;100439.53;4996030;28;20061;-84